createdAt,value
2022-08-17T00:00:52.083Z,20.77
2022-08-17T00:03:26.972Z,20.74
2022-08-17T00:06:02.477Z,20.73
2022-08-17T00:08:36.828Z,20.73
2022-08-17T00:11:11.278Z,20.69
2022-08-17T00:13:45.959Z,20.64
2022-08-17T00:16:22.604Z,20.58
2022-08-17T00:19:17.877Z,20.58
2022-08-17T00:22:31.047Z,20.56
2022-08-17T00:24:43.362Z,20.57
2022-08-17T00:27:15.596Z,20.59
2022-08-17T00:29:48.335Z,20.61
2022-08-17T00:33:15.710Z,20.61
2022-08-17T00:35:14.460Z,20.59
2022-08-17T00:37:46.730Z,20.56
2022-08-17T00:40:20.342Z,20.51
2022-08-17T00:42:53.565Z,20.48
2022-08-17T00:45:25.563Z,20.47
2022-08-17T00:47:57.691Z,20.46
2022-08-17T00:50:29.804Z,20.45
2022-08-17T00:53:01.787Z,20.48
2022-08-17T00:55:34.554Z,20.46
2022-08-17T00:58:08.507Z,20.45
2022-08-17T01:00:45.461Z,20.47
2022-08-17T01:03:21.009Z,20.48
2022-08-17T01:05:56.159Z,20.48
2022-08-17T01:08:31.044Z,20.49
2022-08-17T01:11:05.466Z,20.50
2022-08-17T01:13:41.700Z,20.49
2022-08-17T01:16:18.294Z,20.49
2022-08-17T01:18:54.395Z,20.48
2022-08-17T01:21:32.581Z,20.46
2022-08-17T01:24:05.224Z,20.45
2022-08-17T01:26:40.021Z,20.45
2022-08-17T01:29:13.715Z,20.43
2022-08-17T01:31:51.281Z,20.41
2022-08-17T01:34:24.990Z,20.38
2022-08-17T01:37:09.893Z,20.36
2022-08-17T01:39:46.694Z,20.26
2022-08-17T01:42:26.896Z,20.18
2022-08-17T01:45:03.674Z,20.12
2022-08-17T01:47:37.272Z,20.08
2022-08-17T01:50:13.291Z,20.09
2022-08-17T01:52:46.892Z,20.10
2022-08-17T01:55:27.183Z,20.09
2022-08-17T01:57:59.468Z,20.08
2022-08-17T02:00:59.370Z,20.06
2022-08-17T02:03:26.712Z,20.00
2022-08-17T02:05:59.120Z,19.95
2022-08-17T02:08:37.190Z,19.90
2022-08-17T02:11:15.840Z,19.83
2022-08-17T02:13:49.360Z,19.79
2022-08-17T02:16:36.954Z,19.75
2022-08-17T02:19:13.070Z,19.72
2022-08-17T02:21:46.892Z,19.71
2022-08-17T02:25:00.619Z,19.68
2022-08-17T02:27:16.349Z,19.65
2022-08-17T02:29:48.341Z,19.60
2022-08-17T02:32:28.185Z,19.54
2022-08-17T02:35:01.463Z,19.51
2022-08-17T02:37:34.323Z,19.47
2022-08-17T02:40:07.720Z,19.48
2022-08-17T02:42:41.701Z,19.44
2022-08-17T02:45:16.670Z,19.42
2022-08-17T02:47:48.840Z,19.43
2022-08-17T02:50:23.764Z,19.44
2022-08-17T02:53:02.463Z,19.43
2022-08-17T02:55:40.272Z,19.44
2022-08-17T02:58:13.650Z,19.47
2022-08-17T03:00:48.263Z,19.48
2022-08-17T03:03:20.400Z,19.49
2022-08-17T03:05:53.400Z,19.47
2022-08-17T03:08:25.641Z,19.43
2022-08-17T03:10:58.437Z,19.40
2022-08-17T03:13:30.971Z,19.38
2022-08-17T03:16:03.246Z,19.39
2022-08-17T03:18:36.048Z,19.38
2022-08-17T03:21:09.707Z,19.39
2022-08-17T03:23:42.334Z,19.39
2022-08-17T03:26:16.350Z,19.38
2022-08-17T03:28:49.138Z,19.38
2022-08-17T03:31:21.866Z,19.39
2022-08-17T03:33:53.969Z,19.37
2022-08-17T03:36:25.974Z,19.33
2022-08-17T03:38:58.175Z,19.29
2022-08-17T03:41:30.089Z,19.25
2022-08-17T03:44:02.460Z,19.22
2022-08-17T03:47:03.736Z,19.20
2022-08-17T03:49:53.453Z,19.17
2022-08-17T03:52:43.233Z,19.11
2022-08-17T03:55:36.240Z,19.10
2022-08-17T03:58:08.731Z,19.14
2022-08-17T04:00:46.374Z,19.22
2022-08-17T04:03:19.030Z,19.27
2022-08-17T04:05:51.283Z,19.32
2022-08-17T04:08:24.081Z,19.39
2022-08-17T04:10:57.737Z,19.51
2022-08-17T04:13:29.963Z,19.72
2022-08-17T04:16:02.037Z,19.98
2022-08-17T04:18:34.086Z,20.26
2022-08-17T04:21:06.298Z,20.51
2022-08-17T04:23:38.275Z,20.73
2022-08-17T04:26:10.645Z,20.94
2022-08-17T04:29:01.245Z,21.23
2022-08-17T04:31:34.079Z,21.50
2022-08-17T04:34:06.041Z,21.78
2022-08-17T04:36:38.838Z,22.02
2022-08-17T04:39:11.109Z,22.32
2022-08-17T04:42:00.886Z,22.57
2022-08-17T04:44:37.510Z,22.81
2022-08-17T04:47:10.569Z,23.01
2022-08-17T04:49:45.268Z,23.22
2022-08-17T04:52:32.165Z,23.50
2022-08-17T04:55:10.873Z,23.82
2022-08-17T04:57:45.065Z,24.16
2022-08-17T05:00:18.394Z,24.46
2022-08-17T05:02:52.569Z,24.73
2022-08-17T05:05:26.989Z,24.95
2022-08-17T05:08:01.187Z,25.15
2022-08-17T05:10:37.106Z,25.42
2022-08-17T05:13:19.180Z,25.77
2022-08-17T05:15:54.984Z,26.12
2022-08-17T05:18:27.608Z,26.45
2022-08-17T05:21:00.143Z,26.74
2022-08-17T05:23:41.759Z,26.98
2022-08-17T05:26:23.166Z,27.19
2022-08-17T05:29:02.781Z,27.38
2022-08-17T05:31:35.116Z,27.59
2022-08-17T05:34:07.368Z,27.84
2022-08-17T05:36:43.988Z,28.15
2022-08-17T05:39:17.654Z,28.43
2022-08-17T05:41:50.511Z,28.79
2022-08-17T05:44:22.412Z,29.17
2022-08-17T05:46:55.281Z,29.45
2022-08-17T05:49:29.948Z,29.69
2022-08-17T05:52:20.106Z,29.89
2022-08-17T05:55:09.144Z,30.02
2022-08-17T05:57:54.176Z,29.99
2022-08-17T06:00:32.530Z,30.09
2022-08-17T06:03:39.138Z,30.29
2022-08-17T06:06:25.397Z,30.59
2022-08-17T06:09:27.659Z,30.90
2022-08-17T06:12:19.716Z,31.21
2022-08-17T06:15:04.873Z,31.46
2022-08-17T06:17:37.831Z,31.74
2022-08-17T06:20:15.417Z,31.97
2022-08-17T06:22:56.787Z,32.23
2022-08-17T06:25:45.870Z,32.44
2022-08-17T06:28:25.626Z,32.68
2022-08-17T06:31:05.797Z,32.86
2022-08-17T06:33:39.532Z,33.14
2022-08-17T06:36:26.524Z,33.44
2022-08-17T06:39:13.865Z,33.64
2022-08-17T06:41:55.824Z,33.83
2022-08-17T06:44:43.186Z,33.91
2022-08-17T06:47:29.987Z,34.01
2022-08-17T06:50:10.145Z,34.21
2022-08-17T06:52:51.907Z,34.44
2022-08-17T06:55:27.548Z,34.65
2022-08-17T06:58:16.092Z,34.85
2022-08-17T07:00:56.649Z,35.06
2022-08-17T07:03:38.824Z,35.27
2022-08-17T07:06:15.557Z,35.41
2022-08-17T07:08:55.047Z,35.51
2022-08-17T07:11:31.759Z,35.67
2022-08-17T07:14:17.393Z,35.78
2022-08-17T07:16:52.355Z,35.84
2022-08-17T07:19:29.210Z,35.99
2022-08-17T07:22:14.174Z,36.17
2022-08-17T07:24:52.315Z,36.28
2022-08-17T07:27:27.659Z,36.41
2022-08-17T07:30:05.690Z,36.59
2022-08-17T07:32:45.398Z,36.76
2022-08-17T07:35:22.146Z,36.84
2022-08-17T07:38:24.920Z,36.93
2022-08-17T07:41:08.642Z,37.11
2022-08-17T07:43:48.523Z,37.30
2022-08-17T07:46:40.311Z,37.44
2022-08-17T07:49:25.385Z,37.61
2022-08-17T07:52:24.273Z,37.72
2022-08-17T07:54:53.055Z,37.74
2022-08-17T07:57:36.772Z,37.84
2022-08-17T08:00:23.786Z,37.94
2022-08-17T08:03:13.397Z,37.99
2022-08-17T08:05:56.022Z,38.10
2022-08-17T08:08:34.380Z,38.27
2022-08-17T08:11:12.646Z,38.42
2022-08-17T08:13:46.122Z,38.46
2022-08-17T08:16:30.404Z,38.55
2022-08-17T08:19:04.061Z,38.67
2022-08-17T08:21:44.358Z,38.83
2022-08-17T08:24:34.942Z,38.89
2022-08-17T08:27:16.116Z,38.87
2022-08-17T08:29:54.018Z,38.91
2022-08-17T08:32:48.123Z,38.98
2022-08-17T08:35:31.053Z,39.07
2022-08-17T08:38:11.544Z,39.08
2022-08-17T08:41:16.268Z,39.18
2022-08-17T08:44:00.869Z,39.31
2022-08-17T08:46:43.898Z,39.43
2022-08-17T08:50:05.162Z,39.50
2022-08-17T08:52:52.939Z,39.68
2022-08-17T08:55:34.408Z,39.77
2022-08-17T08:58:32.093Z,39.81
2022-08-17T09:01:17.638Z,39.93
2022-08-17T09:04:19.593Z,40.05
2022-08-17T09:07:05.723Z,40.05
2022-08-17T09:09:50.830Z,40.11
2022-08-17T09:12:32.990Z,40.19
2022-08-17T09:15:13.265Z,40.25
2022-08-17T09:18:14.550Z,40.35
2022-08-17T09:20:52.256Z,40.37
2022-08-17T09:23:33.625Z,40.44
2022-08-17T09:26:13.020Z,40.45
2022-08-17T09:28:50.816Z,40.43
2022-08-17T09:31:33.282Z,40.44
2022-08-17T09:34:12.653Z,40.45
2022-08-17T09:36:53.479Z,40.42
2022-08-17T09:39:34.361Z,40.39
2022-08-17T09:42:13.076Z,40.43
2022-08-17T09:44:51.752Z,40.51
2022-08-17T09:47:31.798Z,40.44
2022-08-17T09:50:11.580Z,40.52
2022-08-17T09:52:44.920Z,40.64
2022-08-17T09:55:17.473Z,40.69
2022-08-17T09:58:05.059Z,40.73
2022-08-17T10:00:44.730Z,40.66
2022-08-17T10:03:26.670Z,40.66
2022-08-17T10:06:07.853Z,40.70
2022-08-17T10:08:47.087Z,40.66
2022-08-17T10:11:50.482Z,40.65
2022-08-17T10:14:37.517Z,40.67
2022-08-17T10:17:25.838Z,40.80
2022-08-17T10:20:07.923Z,40.86
2022-08-17T10:23:01.921Z,40.88
2022-08-17T10:25:55.545Z,40.83
2022-08-17T10:28:37.951Z,40.70
2022-08-17T10:34:28.150Z,40.36
2022-08-17T10:37:11.007Z,40.19
2022-08-17T10:39:53.646Z,40.04
2022-08-17T10:42:33.274Z,39.97
2022-08-17T10:45:17.220Z,39.89
2022-08-17T10:48:06.354Z,39.81
2022-08-17T10:51:01.768Z,39.69
2022-08-17T10:53:58.277Z,39.59
2022-08-17T10:56:46.985Z,39.55
2022-08-17T10:59:55.724Z,39.41
2022-08-17T11:02:33.186Z,39.20
2022-08-17T11:05:18.512Z,38.97
2022-08-17T11:08:08.315Z,38.67
2022-08-17T11:10:54.630Z,38.27
2022-08-17T11:13:40.129Z,37.83
2022-08-17T11:16:33.293Z,37.50
2022-08-17T11:19:29.222Z,37.21
2022-08-17T11:22:21.215Z,36.93
2022-08-17T11:24:55.300Z,36.68
2022-08-17T11:27:31.099Z,36.48
2022-08-17T11:30:07.023Z,36.24
2022-08-17T11:32:47.087Z,36.04
2022-08-17T11:35:40.097Z,35.88
2022-08-17T11:38:25.125Z,35.68
2022-08-17T11:41:27.577Z,35.45
2022-08-17T11:44:19.709Z,35.24
2022-08-17T11:47:26.308Z,35.06
2022-08-17T11:50:45.119Z,34.93
2022-08-17T11:54:21.631Z,34.82
2022-08-17T11:56:52.979Z,34.72
2022-08-17T11:59:59.659Z,34.68
2022-08-17T12:02:48.173Z,34.73
2022-08-17T12:05:36.145Z,34.77
2022-08-17T12:08:22.233Z,34.74
2022-08-17T12:11:01.359Z,34.67
2022-08-17T12:13:39.547Z,34.62
2022-08-17T12:16:17.607Z,34.62
2022-08-17T12:18:54.755Z,34.55
2022-08-17T12:21:35.530Z,34.52
2022-08-17T12:24:24.674Z,34.50
2022-08-17T12:26:59.564Z,34.49
2022-08-17T12:29:35.403Z,34.47
2022-08-17T12:32:18.428Z,34.49
2022-08-17T12:34:52.173Z,34.49
2022-08-17T12:37:26.294Z,34.36
2022-08-17T12:40:01.443Z,34.09
2022-08-17T12:42:37.491Z,33.91
2022-08-17T12:45:23.488Z,33.74
2022-08-17T12:48:07.870Z,33.60
2022-08-17T12:50:43.752Z,33.46
2022-08-17T12:53:18.513Z,33.34
2022-08-17T12:55:52.512Z,33.27
2022-08-17T12:58:27.691Z,33.19
2022-08-17T13:01:04.423Z,33.12
2022-08-17T13:03:41.231Z,33.08
2022-08-17T13:06:15.410Z,33.04
2022-08-17T13:08:49.177Z,33.04
2022-08-17T13:11:24.931Z,33.02
2022-08-17T13:14:09.121Z,33.00
2022-08-17T13:16:41.516Z,32.98
2022-08-17T13:19:29.914Z,33.00
2022-08-17T13:22:14.510Z,33.03
2022-08-17T13:24:55.148Z,33.04
2022-08-17T13:27:29.356Z,33.08
2022-08-17T13:30:04.074Z,33.14
2022-08-17T13:32:43.591Z,33.16
2022-08-17T13:35:39.845Z,33.15
2022-08-17T13:38:15.112Z,33.13
2022-08-17T13:40:52.277Z,33.09
2022-08-17T13:43:45.990Z,33.03
2022-08-17T13:46:24.440Z,32.99
2022-08-17T13:49:05.818Z,32.95
2022-08-17T13:51:37.560Z,32.95
2022-08-17T13:54:21.795Z,32.93
2022-08-17T13:56:59.488Z,32.86
2022-08-17T13:59:54.348Z,32.81
2022-08-17T14:02:28.769Z,32.75
2022-08-17T14:05:02.154Z,32.75
2022-08-17T14:07:40.928Z,32.71
2022-08-17T14:10:19.034Z,32.68
2022-08-17T14:12:53.445Z,32.67
2022-08-17T14:15:55.942Z,32.64
2022-08-17T14:18:52.063Z,32.62
2022-08-17T14:21:17.586Z,32.64
2022-08-17T14:23:54.840Z,32.68
2022-08-17T14:26:57.569Z,32.68
2022-08-17T14:29:31.794Z,32.63
2022-08-17T14:32:08.098Z,32.61
2022-08-17T14:34:40.193Z,32.59
2022-08-17T14:37:12.368Z,32.58
2022-08-17T14:39:44.916Z,32.56
2022-08-17T14:42:17.665Z,32.56
2022-08-17T14:44:51.099Z,32.53
2022-08-17T14:47:23.595Z,32.52
2022-08-17T14:49:56.059Z,32.49
2022-08-17T14:52:28.162Z,32.48
2022-08-17T14:55:00.409Z,32.45
2022-08-17T14:57:33.575Z,32.37
2022-08-17T15:00:10.384Z,32.26
2022-08-17T15:02:54.848Z,32.16
2022-08-17T15:05:31.647Z,32.10
2022-08-17T15:08:05.689Z,32.04
2022-08-17T15:10:39.213Z,32.00
2022-08-17T15:13:19.692Z,31.98
2022-08-17T15:15:52.231Z,31.96
2022-08-17T15:18:25.074Z,31.96
2022-08-17T15:20:57.366Z,31.95
2022-08-17T15:23:29.529Z,31.95
2022-08-17T15:26:01.855Z,31.95
2022-08-17T15:28:33.866Z,31.94
2022-08-17T15:31:06.902Z,31.95
2022-08-17T15:33:38.878Z,31.96
2022-08-17T15:36:11.503Z,31.95
2022-08-17T15:38:44.409Z,31.93
2022-08-17T15:41:18.773Z,31.92
2022-08-17T15:43:51.387Z,31.87
2022-08-17T15:46:25.709Z,31.82
2022-08-17T15:49:00.109Z,31.78
2022-08-17T15:51:35.469Z,31.72
2022-08-17T15:54:22.574Z,31.70
2022-08-17T15:56:55.755Z,31.68
2022-08-17T15:59:31.031Z,31.67
2022-08-17T16:03:13.486Z,31.66
2022-08-17T16:04:57.496Z,31.66
2022-08-17T16:07:30.407Z,31.64
2022-08-17T16:10:03.163Z,31.61
2022-08-17T16:12:35.951Z,31.58
2022-08-17T16:15:12.319Z,31.56
2022-08-17T16:17:45.114Z,31.55
2022-08-17T16:20:20.456Z,31.56
2022-08-17T16:22:54.956Z,31.55
2022-08-17T16:25:52.486Z,31.53
2022-08-17T16:28:30.908Z,31.50
2022-08-17T16:31:09.317Z,31.47
2022-08-17T16:33:42.336Z,31.41
2022-08-17T16:36:34.592Z,31.36
2022-08-17T16:39:08.821Z,31.32
2022-08-17T16:41:46.737Z,31.27
2022-08-17T16:44:21.426Z,31.20
2022-08-17T16:46:53.542Z,31.12
2022-08-17T16:49:35.557Z,31.04
2022-08-17T16:52:11.632Z,30.96
2022-08-17T16:54:47.001Z,30.89
2022-08-17T16:57:20.400Z,30.82
2022-08-17T16:59:53.596Z,30.76
2022-08-17T17:02:31.684Z,30.71
2022-08-17T17:05:08.428Z,30.64
2022-08-17T17:07:52.213Z,30.58
2022-08-17T17:10:29.625Z,30.53
2022-08-17T17:13:04.358Z,30.48
2022-08-17T17:15:47.211Z,30.43
2022-08-17T17:18:27.843Z,30.36
2022-08-17T17:21:00.630Z,30.29
2022-08-17T17:23:41.032Z,30.22
2022-08-17T17:26:27.448Z,30.11
2022-08-17T17:29:16.517Z,29.98
2022-08-17T17:31:57.761Z,29.84
2022-08-17T17:34:33.813Z,29.73
2022-08-17T17:37:13.703Z,29.64
2022-08-17T17:39:52.134Z,29.53
2022-08-17T17:42:31.518Z,29.44
2022-08-17T17:45:10.879Z,29.36
2022-08-17T17:47:43.160Z,29.29
2022-08-17T17:50:16.908Z,29.22
2022-08-17T17:53:02.260Z,29.13
2022-08-17T17:55:54.460Z,29.03
2022-08-17T17:58:37.114Z,28.93
2022-08-17T18:01:23.665Z,28.86
2022-08-17T18:04:20.592Z,28.78
2022-08-17T18:07:15.414Z,28.70
2022-08-17T18:10:03.312Z,28.62
2022-08-17T18:12:44.330Z,28.56
2022-08-17T18:15:29.659Z,28.49
2022-08-17T18:18:38.740Z,28.43
2022-08-17T18:21:19.752Z,28.34
2022-08-17T18:24:01.180Z,28.26
2022-08-17T18:26:45.048Z,28.18
2022-08-17T18:29:31.754Z,28.09
2022-08-17T18:32:33.932Z,28.00
2022-08-17T18:35:28.432Z,27.90
2022-08-17T18:38:21.314Z,27.83
2022-08-17T18:41:06.730Z,27.76
2022-08-17T18:43:53.199Z,27.70
2022-08-17T18:46:35.299Z,27.63
2022-08-17T18:49:27.299Z,27.53
2022-08-17T18:52:14.698Z,27.44
2022-08-17T18:55:04.757Z,27.37
2022-08-17T18:57:40.985Z,27.28
2022-08-17T19:00:18.708Z,27.21
2022-08-17T19:02:56.565Z,27.16
2022-08-17T19:05:37.928Z,27.10
2022-08-17T19:08:23.843Z,27.03
2022-08-17T19:10:59.627Z,26.97
2022-08-17T19:13:36.813Z,26.90
2022-08-17T19:16:17.723Z,26.84
2022-08-17T19:18:59.118Z,26.77
2022-08-17T19:21:40.492Z,26.69
2022-08-17T19:24:19.939Z,26.63
2022-08-17T19:27:01.722Z,26.56
2022-08-17T19:29:44.334Z,26.48
2022-08-17T19:32:23.261Z,26.40
2022-08-17T19:34:56.266Z,26.33
2022-08-17T19:37:38.057Z,26.26
2022-08-17T19:40:41.841Z,26.16
2022-08-17T19:43:25.045Z,26.07
2022-08-17T19:46:08.173Z,26.00
2022-08-17T19:48:51.984Z,25.94
2022-08-17T19:51:38.965Z,25.86
2022-08-17T19:54:21.655Z,25.72
2022-08-17T19:57:01.680Z,25.60
2022-08-17T19:59:51.466Z,25.47
2022-08-17T20:02:35.268Z,25.34
2022-08-17T20:05:16.137Z,25.23
2022-08-17T20:08:00.186Z,25.14
2022-08-17T20:10:55.224Z,25.01
2022-08-17T20:13:41.322Z,24.91
2022-08-17T20:16:18.202Z,24.89
2022-08-17T20:18:56.557Z,24.89
2022-08-17T20:21:37.232Z,24.91
2022-08-17T20:24:21.439Z,24.89
2022-08-17T20:26:59.291Z,24.85
2022-08-17T20:30:09.353Z,24.80
2022-08-17T20:32:55.502Z,24.78
2022-08-17T20:35:31.039Z,24.79
2022-08-17T20:38:06.721Z,24.81
2022-08-17T20:41:00.894Z,24.81
2022-08-17T20:43:51.336Z,24.80
2022-08-17T20:46:51.467Z,24.79
2022-08-17T20:49:30.919Z,24.77
2022-08-17T20:52:08.896Z,24.74
2022-08-17T20:54:54.342Z,24.70
2022-08-17T20:57:48.623Z,24.65
2022-08-17T21:00:45.812Z,24.59
2022-08-17T21:03:52.274Z,24.53
2022-08-17T21:06:26.990Z,24.45
2022-08-17T21:09:20.782Z,24.39
2022-08-17T21:12:05.559Z,24.32
2022-08-17T21:14:59.794Z,24.25
2022-08-17T21:17:47.578Z,24.17
2022-08-17T21:20:33.207Z,24.13
2022-08-17T21:23:20.882Z,24.07
2022-08-17T21:26:09.540Z,23.99
2022-08-17T21:29:00.793Z,23.89
2022-08-17T21:31:37.155Z,23.85
2022-08-17T21:34:36.015Z,23.83
2022-08-17T21:37:35.215Z,23.79
2022-08-17T21:40:25.696Z,23.73
2022-08-17T21:43:26.614Z,23.70
2022-08-17T21:46:05.549Z,23.68
2022-08-17T21:48:48.270Z,23.67
2022-08-17T21:51:24.447Z,23.66
2022-08-17T21:53:58.717Z,23.65
2022-08-17T21:56:34.147Z,23.61
2022-08-17T21:59:09.763Z,23.56
2022-08-17T22:01:43.922Z,23.53
2022-08-17T22:04:29.039Z,23.53
2022-08-17T22:07:03.397Z,23.51
2022-08-17T22:09:41.710Z,23.47
2022-08-17T22:12:18.812Z,23.48
2022-08-17T22:15:02.604Z,23.46
2022-08-17T22:17:41.259Z,23.40
2022-08-17T22:20:17.976Z,23.35
2022-08-17T22:23:29.235Z,23.25
2022-08-17T22:26:04.022Z,23.23
2022-08-17T22:28:46.814Z,23.22
2022-08-17T22:31:21.022Z,23.24
2022-08-17T22:34:08.133Z,23.26
2022-08-17T22:36:42.225Z,23.29
2022-08-17T22:39:43.045Z,23.32
2022-08-17T22:42:17.384Z,23.34
2022-08-17T22:44:51.685Z,23.31
2022-08-17T22:47:41.010Z,23.30
2022-08-17T22:50:24.825Z,23.29
2022-08-17T22:53:19.063Z,23.30
2022-08-17T22:56:13.799Z,23.29
2022-08-17T22:59:09.812Z,23.29
2022-08-17T23:01:43.410Z,23.28
2022-08-17T23:04:31.153Z,23.26
2022-08-17T23:07:03.424Z,23.27
2022-08-17T23:09:35.952Z,23.29
2022-08-17T23:12:16.060Z,23.28
2022-08-17T23:14:51.415Z,23.26
2022-08-17T23:17:23.541Z,23.21
2022-08-17T23:19:57.069Z,23.18
2022-08-17T23:22:29.401Z,23.16
2022-08-17T23:25:01.482Z,23.15
2022-08-17T23:27:33.612Z,23.16
2022-08-17T23:30:05.890Z,23.14
2022-08-17T23:32:39.365Z,23.12
2022-08-17T23:35:39.219Z,23.09
2022-08-17T23:38:14.317Z,23.04
2022-08-17T23:40:46.453Z,23.01
2022-08-17T23:43:25.274Z,22.96
2022-08-17T23:46:00.813Z,22.90
2022-08-17T23:48:36.707Z,22.88
2022-08-17T23:51:13.908Z,22.85
2022-08-17T23:53:50.156Z,22.82
2022-08-17T23:56:24.708Z,22.77
2022-08-17T23:58:58.625Z,22.74
